sensor_id;sensor_type;location;lat;lon;timestamp;P1;durP1;ratioP1;P2;durP2;ratioP2
23628;SDS011;11991;57.150;-2.134;2024-02-15T00:01:14;1.27;;;1.00;;
23628;SDS011;11991;57.150;-2.134;2024-02-15T00:03:41;2.42;;;1.55;;
23628;SDS011;11991;57.150;-2.134;2024-02-15T00:06:09;3.38;;;2.03;;
23628;SDS011;11991;57.150;-2.134;2024-02-15T00:08:36;1.92;;;1.60;;
23628;SDS011;11991;57.150;-2.134;2024-02-15T00:11:03;2.38;;;1.77;;
23628;SDS011;11991;57.150;-2.134;2024-02-15T00:13:31;3.85;;;1.75;;
23628;SDS011;11991;57.150;-2.134;2024-02-15T00:16:00;2.15;;;1.65;;
23628;SDS011;11991;57.150;-2.134;2024-02-15T00:18:27;3.05;;;2.08;;
23628;SDS011;11991;57.150;-2.134;2024-02-15T00:20:55;1.48;;;1.25;;
23628;SDS011;11991;57.150;-2.134;2024-02-15T00:23:22;3.63;;;1.83;;
23628;SDS011;11991;57.150;-2.134;2024-02-15T00:25:49;4.00;;;2.30;;
23628;SDS011;11991;57.150;-2.134;2024-02-15T00:28:16;2.60;;;1.98;;
23628;SDS011;11991;57.150;-2.134;2024-02-15T00:30:43;1.85;;;1.42;;
23628;SDS011;11991;57.150;-2.134;2024-02-15T00:33:10;1.77;;;1.55;;
23628;SDS011;11991;57.150;-2.134;2024-02-15T00:35:38;3.25;;;2.10;;
23628;SDS011;11991;57.150;-2.134;2024-02-15T00:38:06;2.00;;;1.70;;
23628;SDS011;11991;57.150;-2.134;2024-02-15T00:40:33;3.83;;;2.20;;
23628;SDS011;11991;57.150;-2.134;2024-02-15T00:43:01;2.78;;;1.92;;
23628;SDS011;11991;57.150;-2.134;2024-02-15T00:45:28;2.60;;;1.90;;
23628;SDS011;11991;57.150;-2.134;2024-02-15T00:47:55;2.67;;;1.75;;
23628;SDS011;11991;57.150;-2.134;2024-02-15T00:50:23;3.03;;;1.92;;
23628;SDS011;11991;57.150;-2.134;2024-02-15T00:52:50;1.80;;;1.30;;
23628;SDS011;11991;57.150;-2.134;2024-02-15T00:55:17;1.20;;;1.10;;
23628;SDS011;11991;57.150;-2.134;2024-02-15T00:57:45;2.50;;;1.60;;
23628;SDS011;11991;57.150;-2.134;2024-02-15T01:00:13;1.63;;;1.30;;
23628;SDS011;11991;57.150;-2.134;2024-02-15T01:02:41;2.92;;;1.80;;
23628;SDS011;11991;57.150;-2.134;2024-02-15T01:05:08;2.58;;;1.60;;
23628;SDS011;11991;57.150;-2.134;2024-02-15T01:07:36;2.35;;;1.98;;
23628;SDS011;11991;57.150;-2.134;2024-02-15T01:10:04;1.77;;;1.33;;
23628;SDS011;11991;57.150;-2.134;2024-02-15T01:12:32;1.60;;;1.30;;
23628;SDS011;11991;57.150;-2.134;2024-02-15T01:15:00;5.43;;;2.13;;
23628;SDS011;11991;57.150;-2.134;2024-02-15T01:17:27;1.45;;;1.20;;
23628;SDS011;11991;57.150;-2.134;2024-02-15T01:19:54;1.52;;;1.42;;
23628;SDS011;11991;57.150;-2.134;2024-02-15T01:22:22;2.95;;;1.77;;
23628;SDS011;11991;57.150;-2.134;2024-02-15T01:24:51;1.35;;;1.15;;
23628;SDS011;11991;57.150;-2.134;2024-02-15T01:27:18;1.15;;;1.05;;
23628;SDS011;11991;57.150;-2.134;2024-02-15T01:29:46;1.10;;;1.00;;
23628;SDS011;11991;57.150;-2.134;2024-02-15T01:32:13;1.27;;;1.15;;
23628;SDS011;11991;57.150;-2.134;2024-02-15T01:34:40;1.70;;;1.35;;
23628;SDS011;11991;57.150;-2.134;2024-02-15T01:37:08;1.58;;;1.20;;
23628;SDS011;11991;57.150;-2.134;2024-02-15T01:39:35;1.33;;;1.15;;
23628;SDS011;11991;57.150;-2.134;2024-02-15T01:42:03;0.80;;;0.80;;
23628;SDS011;11991;57.150;-2.134;2024-02-15T01:44:30;1.40;;;1.17;;
23628;SDS011;11991;57.150;-2.134;2024-02-15T01:46:57;1.13;;;0.90;;
23628;SDS011;11991;57.150;-2.134;2024-02-15T01:49:25;1.25;;;1.15;;
23628;SDS011;11991;57.150;-2.134;2024-02-15T01:51:55;1.25;;;1.15;;
23628;SDS011;11991;57.150;-2.134;2024-02-15T01:54:23;1.48;;;1.25;;
23628;SDS011;11991;57.150;-2.134;2024-02-15T01:56:53;2.05;;;1.27;;
23628;SDS011;11991;57.150;-2.134;2024-02-15T01:59:22;1.52;;;1.30;;
23628;SDS011;11991;57.150;-2.134;2024-02-15T02:01:50;1.15;;;1.05;;
23628;SDS011;11991;57.150;-2.134;2024-02-15T02:04:17;2.05;;;1.38;;
23628;SDS011;11991;57.150;-2.134;2024-02-15T02:06:44;1.10;;;1.00;;
23628;SDS011;11991;57.150;-2.134;2024-02-15T02:09:12;1.10;;;1.00;;
23628;SDS011;11991;57.150;-2.134;2024-02-15T02:11:41;1.50;;;1.40;;
23628;SDS011;11991;57.150;-2.134;2024-02-15T02:14:11;1.00;;;0.90;;
23628;SDS011;11991;57.150;-2.134;2024-02-15T02:16:38;0.90;;;0.90;;
23628;SDS011;11991;57.150;-2.134;2024-02-15T02:19:06;0.90;;;0.80;;
23628;SDS011;11991;57.150;-2.134;2024-02-15T02:21:35;1.10;;;1.00;;
23628;SDS011;11991;57.150;-2.134;2024-02-15T02:24:09;0.80;;;0.80;;
23628;SDS011;11991;57.150;-2.134;2024-02-15T02:26:40;1.45;;;1.20;;
23628;SDS011;11991;57.150;-2.134;2024-02-15T02:29:07;1.02;;;0.90;;
23628;SDS011;11991;57.150;-2.134;2024-02-15T02:31:35;1.45;;;1.35;;
23628;SDS011;11991;57.150;-2.134;2024-02-15T02:34:02;1.17;;;1.08;;
23628;SDS011;11991;57.150;-2.134;2024-02-15T02:36:30;1.00;;;0.90;;
23628;SDS011;11991;57.150;-2.134;2024-02-15T02:38:57;0.80;;;0.80;;
23628;SDS011;11991;57.150;-2.134;2024-02-15T02:41:28;0.80;;;0.80;;
23628;SDS011;11991;57.150;-2.134;2024-02-15T02:43:55;0.70;;;0.70;;
23628;SDS011;11991;57.150;-2.134;2024-02-15T02:46:23;0.85;;;0.82;;
23628;SDS011;11991;57.150;-2.134;2024-02-15T02:48:51;0.57;;;0.57;;
23628;SDS011;11991;57.150;-2.134;2024-02-15T02:51:18;0.40;;;0.40;;
23628;SDS011;11991;57.150;-2.134;2024-02-15T02:53:45;0.60;;;0.60;;
23628;SDS011;11991;57.150;-2.134;2024-02-15T02:56:13;0.95;;;0.75;;
23628;SDS011;11991;57.150;-2.134;2024-02-15T02:58:40;0.60;;;0.60;;
23628;SDS011;11991;57.150;-2.134;2024-02-15T03:01:09;0.50;;;0.50;;
23628;SDS011;11991;57.150;-2.134;2024-02-15T03:03:40;0.65;;;0.65;;
23628;SDS011;11991;57.150;-2.134;2024-02-15T03:06:07;0.60;;;0.60;;
23628;SDS011;11991;57.150;-2.134;2024-02-15T03:08:35;0.63;;;0.63;;
23628;SDS011;11991;57.150;-2.134;2024-02-15T03:11:02;0.60;;;0.60;;
23628;SDS011;11991;57.150;-2.134;2024-02-15T03:13:29;0.52;;;0.52;;
23628;SDS011;11991;57.150;-2.134;2024-02-15T03:15:56;0.73;;;0.70;;
23628;SDS011;11991;57.150;-2.134;2024-02-15T03:18:23;0.80;;;0.70;;
23628;SDS011;11991;57.150;-2.134;2024-02-15T03:20:51;0.60;;;0.60;;
23628;SDS011;11991;57.150;-2.134;2024-02-15T03:23:18;0.60;;;0.60;;
23628;SDS011;11991;57.150;-2.134;2024-02-15T03:25:45;0.57;;;0.50;;
23628;SDS011;11991;57.150;-2.134;2024-02-15T03:28:13;0.68;;;0.60;;
23628;SDS011;11991;57.150;-2.134;2024-02-15T03:30:42;0.80;;;0.70;;
23628;SDS011;11991;57.150;-2.134;2024-02-15T03:33:12;0.60;;;0.60;;
23628;SDS011;11991;57.150;-2.134;2024-02-15T03:35:40;0.50;;;0.50;;
23628;SDS011;11991;57.150;-2.134;2024-02-15T03:38:08;0.50;;;0.50;;
23628;SDS011;11991;57.150;-2.134;2024-02-15T03:40:35;0.50;;;0.50;;
23628;SDS011;11991;57.150;-2.134;2024-02-15T03:43:03;0.65;;;0.65;;
23628;SDS011;11991;57.150;-2.134;2024-02-15T03:45:33;0.55;;;0.55;;
23628;SDS011;11991;57.150;-2.134;2024-02-15T03:48:00;1.05;;;0.95;;
23628;SDS011;11991;57.150;-2.134;2024-02-15T03:50:28;0.52;;;0.52;;
23628;SDS011;11991;57.150;-2.134;2024-02-15T03:52:55;0.60;;;0.60;;
23628;SDS011;11991;57.150;-2.134;2024-02-15T03:55:22;0.57;;;0.57;;
23628;SDS011;11991;57.150;-2.134;2024-02-15T03:57:52;0.65;;;0.60;;
23628;SDS011;11991;57.150;-2.134;2024-02-15T04:00:22;0.50;;;0.50;;
23628;SDS011;11991;57.150;-2.134;2024-02-15T04:02:51;0.60;;;0.60;;
23628;SDS011;11991;57.150;-2.134;2024-02-15T04:05:18;0.50;;;0.50;;
23628;SDS011;11991;57.150;-2.134;2024-02-15T04:07:48;0.60;;;0.60;;
23628;SDS011;11991;57.150;-2.134;2024-02-15T04:10:16;0.57;;;0.57;;
23628;SDS011;11991;57.150;-2.134;2024-02-15T04:12:44;0.50;;;0.50;;
23628;SDS011;11991;57.150;-2.134;2024-02-15T04:15:12;0.47;;;0.47;;
23628;SDS011;11991;57.150;-2.134;2024-02-15T04:17:44;0.60;;;0.60;;
23628;SDS011;11991;57.150;-2.134;2024-02-15T04:20:12;0.70;;;0.55;;
23628;SDS011;11991;57.150;-2.134;2024-02-15T04:22:42;0.65;;;0.65;;
23628;SDS011;11991;57.150;-2.134;2024-02-15T04:25:10;0.60;;;0.50;;
23628;SDS011;11991;57.150;-2.134;2024-02-15T04:27:44;0.50;;;0.50;;
23628;SDS011;11991;57.150;-2.134;2024-02-15T04:30:16;0.68;;;0.63;;
23628;SDS011;11991;57.150;-2.134;2024-02-15T04:32:44;0.60;;;0.60;;
23628;SDS011;11991;57.150;-2.134;2024-02-15T04:35:11;0.50;;;0.50;;
23628;SDS011;11991;57.150;-2.134;2024-02-15T04:37:40;0.50;;;0.50;;
23628;SDS011;11991;57.150;-2.134;2024-02-15T04:40:08;0.52;;;0.50;;
23628;SDS011;11991;57.150;-2.134;2024-02-15T04:42:40;0.73;;;0.60;;
23628;SDS011;11991;57.150;-2.134;2024-02-15T04:45:11;0.50;;;0.50;;
23628;SDS011;11991;57.150;-2.134;2024-02-15T04:47:41;0.65;;;0.50;;
23628;SDS011;11991;57.150;-2.134;2024-02-15T04:50:09;0.50;;;0.50;;
23628;SDS011;11991;57.150;-2.134;2024-02-15T04:52:36;0.38;;;0.38;;
23628;SDS011;11991;57.150;-2.134;2024-02-15T04:55:04;0.35;;;0.35;;
23628;SDS011;11991;57.150;-2.134;2024-02-15T04:57:34;0.50;;;0.50;;
23628;SDS011;11991;57.150;-2.134;2024-02-15T05:00:03;0.40;;;0.40;;
23628;SDS011;11991;57.150;-2.134;2024-02-15T05:02:40;0.60;;;0.60;;
23628;SDS011;11991;57.150;-2.134;2024-02-15T05:05:09;0.50;;;0.50;;
23628;SDS011;11991;57.150;-2.134;2024-02-15T05:07:36;0.57;;;0.45;;
23628;SDS011;11991;57.150;-2.134;2024-02-15T05:10:06;0.40;;;0.40;;
23628;SDS011;11991;57.150;-2.134;2024-02-15T05:12:37;0.38;;;0.38;;
23628;SDS011;11991;57.150;-2.134;2024-02-15T05:15:06;0.40;;;0.40;;
23628;SDS011;11991;57.150;-2.134;2024-02-15T05:17:39;0.60;;;0.60;;
23628;SDS011;11991;57.150;-2.134;2024-02-15T05:20:11;0.63;;;0.52;;
23628;SDS011;11991;57.150;-2.134;2024-02-15T05:22:40;0.60;;;0.60;;
23628;SDS011;11991;57.150;-2.134;2024-02-15T05:25:17;0.75;;;0.57;;
23628;SDS011;11991;57.150;-2.134;2024-02-15T05:27:51;1.00;;;0.90;;
23628;SDS011;11991;57.150;-2.134;2024-02-15T05:30:23;0.82;;;0.70;;
23628;SDS011;11991;57.150;-2.134;2024-02-15T05:32:51;0.80;;;0.80;;
23628;SDS011;11991;57.150;-2.134;2024-02-15T05:35:21;0.55;;;0.50;;
23628;SDS011;11991;57.150;-2.134;2024-02-15T05:37:48;0.70;;;0.60;;
23628;SDS011;11991;57.150;-2.134;2024-02-15T05:40:15;0.93;;;0.80;;
23628;SDS011;11991;57.150;-2.134;2024-02-15T05:42:44;0.65;;;0.63;;
23628;SDS011;11991;57.150;-2.134;2024-02-15T05:47:52;0.85;;;0.73;;
23628;SDS011;11991;57.150;-2.134;2024-02-15T05:50:20;1.10;;;1.00;;
23628;SDS011;11991;57.150;-2.134;2024-02-15T05:52:48;1.33;;;0.90;;
23628;SDS011;11991;57.150;-2.134;2024-02-15T05:55:15;0.88;;;0.80;;
23628;SDS011;11991;57.150;-2.134;2024-02-15T05:57:43;0.95;;;0.85;;
23628;SDS011;11991;57.150;-2.134;2024-02-15T06:00:11;0.88;;;0.82;;
23628;SDS011;11991;57.150;-2.134;2024-02-15T06:02:48;1.73;;;1.33;;
23628;SDS011;11991;57.150;-2.134;2024-02-15T06:05:17;1.52;;;1.15;;
23628;SDS011;11991;57.150;-2.134;2024-02-15T06:07:44;0.70;;;0.70;;
23628;SDS011;11991;57.150;-2.134;2024-02-15T06:10:14;0.88;;;0.82;;
23628;SDS011;11991;57.150;-2.134;2024-02-15T06:12:42;1.17;;;0.98;;
23628;SDS011;11991;57.150;-2.134;2024-02-15T06:15:09;1.02;;;0.85;;
23628;SDS011;11991;57.150;-2.134;2024-02-15T06:17:43;0.90;;;0.80;;
23628;SDS011;11991;57.150;-2.134;2024-02-15T06:20:14;0.70;;;0.50;;
23628;SDS011;11991;57.150;-2.134;2024-02-15T06:22:45;0.90;;;0.70;;
23628;SDS011;11991;57.150;-2.134;2024-02-15T06:25:13;0.93;;;0.90;;
23628;SDS011;11991;57.150;-2.134;2024-02-15T06:27:42;0.80;;;0.80;;
23628;SDS011;11991;57.150;-2.134;2024-02-15T06:30:09;0.73;;;0.73;;
23628;SDS011;11991;57.150;-2.134;2024-02-15T06:32:57;1.77;;;1.33;;
23628;SDS011;11991;57.150;-2.134;2024-02-15T06:35:43;0.60;;;0.60;;
23628;SDS011;11991;57.150;-2.134;2024-02-15T06:38:28;0.70;;;0.63;;
23628;SDS011;11991;57.150;-2.134;2024-02-15T06:41:14;0.60;;;0.60;;
23628;SDS011;11991;57.150;-2.134;2024-02-15T06:43:42;0.88;;;0.60;;
23628;SDS011;11991;57.150;-2.134;2024-02-15T06:46:09;0.60;;;0.60;;
23628;SDS011;11991;57.150;-2.134;2024-02-15T06:48:37;0.70;;;0.70;;
23628;SDS011;11991;57.150;-2.134;2024-02-15T06:51:05;0.60;;;0.60;;
23628;SDS011;11991;57.150;-2.134;2024-02-15T06:53:34;0.65;;;0.65;;
23628;SDS011;11991;57.150;-2.134;2024-02-15T06:56:01;0.65;;;0.65;;
23628;SDS011;11991;57.150;-2.134;2024-02-15T06:58:29;0.73;;;0.70;;
23628;SDS011;11991;57.150;-2.134;2024-02-15T07:00:56;1.00;;;0.90;;
23628;SDS011;11991;57.150;-2.134;2024-02-15T07:03:23;1.95;;;1.20;;
23628;SDS011;11991;57.150;-2.134;2024-02-15T07:05:51;1.70;;;1.40;;
23628;SDS011;11991;57.150;-2.134;2024-02-15T07:08:18;1.38;;;1.15;;
23628;SDS011;11991;57.150;-2.134;2024-02-15T07:10:45;0.75;;;0.75;;
23628;SDS011;11991;57.150;-2.134;2024-02-15T07:13:12;1.65;;;1.15;;
23628;SDS011;11991;57.150;-2.134;2024-02-15T07:15:39;1.25;;;1.00;;
23628;SDS011;11991;57.150;-2.134;2024-02-15T07:18:07;1.33;;;0.93;;
23628;SDS011;11991;57.150;-2.134;2024-02-15T07:20:34;2.15;;;1.48;;
23628;SDS011;11991;57.150;-2.134;2024-02-15T07:23:01;1.27;;;1.10;;
23628;SDS011;11991;57.150;-2.134;2024-02-15T07:25:30;2.05;;;1.40;;
23628;SDS011;11991;57.150;-2.134;2024-02-15T07:27:57;1.95;;;1.33;;
23628;SDS011;11991;57.150;-2.134;2024-02-15T07:30:25;1.23;;;1.10;;
23628;SDS011;11991;57.150;-2.134;2024-02-15T07:32:52;1.20;;;0.80;;
23628;SDS011;11991;57.150;-2.134;2024-02-15T07:35:19;2.28;;;1.80;;
23628;SDS011;11991;57.150;-2.134;2024-02-15T07:37:50;1.55;;;1.13;;
23628;SDS011;11991;57.150;-2.134;2024-02-15T07:40:20;2.13;;;1.90;;
23628;SDS011;11991;57.150;-2.134;2024-02-15T07:42:48;2.08;;;1.75;;
23628;SDS011;11991;57.150;-2.134;2024-02-15T07:45:16;2.35;;;1.58;;
23628;SDS011;11991;57.150;-2.134;2024-02-15T07:47:44;2.78;;;1.85;;
23628;SDS011;11991;57.150;-2.134;2024-02-15T07:50:14;1.85;;;1.30;;
23628;SDS011;11991;57.150;-2.134;2024-02-15T07:52:47;3.05;;;1.55;;
23628;SDS011;11991;57.150;-2.134;2024-02-15T07:55:14;3.63;;;1.60;;
23628;SDS011;11991;57.150;-2.134;2024-02-15T07:57:41;3.05;;;1.55;;
23628;SDS011;11991;57.150;-2.134;2024-02-15T08:00:09;3.03;;;1.80;;
23628;SDS011;11991;57.150;-2.134;2024-02-15T08:02:38;1.65;;;1.17;;
23628;SDS011;11991;57.150;-2.134;2024-02-15T08:05:11;2.25;;;1.25;;
23628;SDS011;11991;57.150;-2.134;2024-02-15T08:07:43;1.67;;;1.10;;
23628;SDS011;11991;57.150;-2.134;2024-02-15T08:10:11;1.83;;;1.15;;
23628;SDS011;11991;57.150;-2.134;2024-02-15T08:12:45;3.40;;;2.00;;
23628;SDS011;11991;57.150;-2.134;2024-02-15T08:15:12;4.13;;;2.10;;
23628;SDS011;11991;57.150;-2.134;2024-02-15T08:17:40;2.50;;;1.50;;
23628;SDS011;11991;57.150;-2.134;2024-02-15T08:20:12;1.92;;;1.38;;
23628;SDS011;11991;57.150;-2.134;2024-02-15T08:22:40;2.35;;;2.03;;
23628;SDS011;11991;57.150;-2.134;2024-02-15T08:25:11;5.82;;;2.55;;
23628;SDS011;11991;57.150;-2.134;2024-02-15T08:27:40;4.38;;;2.85;;
23628;SDS011;11991;57.150;-2.134;2024-02-15T08:30:10;4.82;;;2.83;;
23628;SDS011;11991;57.150;-2.134;2024-02-15T08:32:39;4.38;;;2.47;;
23628;SDS011;11991;57.150;-2.134;2024-02-15T08:35:09;4.00;;;2.55;;
23628;SDS011;11991;57.150;-2.134;2024-02-15T08:37:38;2.17;;;1.58;;
23628;SDS011;11991;57.150;-2.134;2024-02-15T08:40:10;2.25;;;1.63;;
23628;SDS011;11991;57.150;-2.134;2024-02-15T08:42:41;5.53;;;2.67;;
23628;SDS011;11991;57.150;-2.134;2024-02-15T08:45:09;3.97;;;2.08;;
23628;SDS011;11991;57.150;-2.134;2024-02-15T08:47:38;4.28;;;1.83;;
23628;SDS011;11991;57.150;-2.134;2024-02-15T08:50:06;9.88;;;5.80;;
23628;SDS011;11991;57.150;-2.134;2024-02-15T08:52:37;12.13;;;6.70;;
23628;SDS011;11991;57.150;-2.134;2024-02-15T08:55:09;8.32;;;4.25;;
23628;SDS011;11991;57.150;-2.134;2024-02-15T08:57:41;9.75;;;5.53;;
23628;SDS011;11991;57.150;-2.134;2024-02-15T09:00:11;5.32;;;2.92;;
23628;SDS011;11991;57.150;-2.134;2024-02-15T09:02:43;4.90;;;3.20;;
23628;SDS011;11991;57.150;-2.134;2024-02-15T09:05:11;3.17;;;2.10;;
23628;SDS011;11991;57.150;-2.134;2024-02-15T09:07:41;4.78;;;2.40;;
23628;SDS011;11991;57.150;-2.134;2024-02-15T09:10:10;3.25;;;2.00;;
23628;SDS011;11991;57.150;-2.134;2024-02-15T09:12:38;3.90;;;2.20;;
23628;SDS011;11991;57.150;-2.134;2024-02-15T09:15:07;3.00;;;2.00;;
23628;SDS011;11991;57.150;-2.134;2024-02-15T09:17:35;2.65;;;1.88;;
23628;SDS011;11991;57.150;-2.134;2024-02-15T09:20:10;2.67;;;1.98;;
23628;SDS011;11991;57.150;-2.134;2024-02-15T09:22:48;3.92;;;2.35;;
23628;SDS011;11991;57.150;-2.134;2024-02-15T09:25:17;3.17;;;2.20;;
23628;SDS011;11991;57.150;-2.134;2024-02-15T09:27:45;3.75;;;2.40;;
23628;SDS011;11991;57.150;-2.134;2024-02-15T09:30:13;5.15;;;2.85;;
23628;SDS011;11991;57.150;-2.134;2024-02-15T09:32:42;3.53;;;2.28;;
23628;SDS011;11991;57.150;-2.134;2024-02-15T09:35:10;3.25;;;1.98;;
23628;SDS011;11991;57.150;-2.134;2024-02-15T09:37:43;3.20;;;1.98;;
23628;SDS011;11991;57.150;-2.134;2024-02-15T09:40:17;3.67;;;2.15;;
23628;SDS011;11991;57.150;-2.134;2024-02-15T09:42:46;3.33;;;2.30;;
23628;SDS011;11991;57.150;-2.134;2024-02-15T09:45:14;2.85;;;2.05;;
23628;SDS011;11991;57.150;-2.134;2024-02-15T09:47:44;2.33;;;1.63;;
23628;SDS011;11991;57.150;-2.134;2024-02-15T09:50:12;1.95;;;1.40;;
23628;SDS011;11991;57.150;-2.134;2024-02-15T09:52:45;1.60;;;1.30;;
23628;SDS011;11991;57.150;-2.134;2024-02-15T09:55:18;1.73;;;1.42;;
23628;SDS011;11991;57.150;-2.134;2024-02-15T09:57:46;2.22;;;1.60;;
23628;SDS011;11991;57.150;-2.134;2024-02-15T10:00:14;2.22;;;1.38;;
23628;SDS011;11991;57.150;-2.134;2024-02-15T10:02:44;1.60;;;1.30;;
23628;SDS011;11991;57.150;-2.134;2024-02-15T10:05:17;1.20;;;1.00;;
23628;SDS011;11991;57.150;-2.134;2024-02-15T10:07:45;1.42;;;1.08;;
23628;SDS011;11991;57.150;-2.134;2024-02-15T10:12:52;1.45;;;1.25;;
23628;SDS011;11991;57.150;-2.134;2024-02-15T10:15:28;1.98;;;1.42;;
23628;SDS011;11991;57.150;-2.134;2024-02-15T10:17:59;1.98;;;1.52;;
23628;SDS011;11991;57.150;-2.134;2024-02-15T10:20:40;1.20;;;1.10;;
23628;SDS011;11991;57.150;-2.134;2024-02-15T10:23:12;1.65;;;1.45;;
23628;SDS011;11991;57.150;-2.134;2024-02-15T10:25:44;1.48;;;1.00;;
23628;SDS011;11991;57.150;-2.134;2024-02-15T10:28:12;1.42;;;1.20;;
23628;SDS011;11991;57.150;-2.134;2024-02-15T10:30:46;1.10;;;0.80;;
23628;SDS011;11991;57.150;-2.134;2024-02-15T10:33:33;2.03;;;1.00;;
23628;SDS011;11991;57.150;-2.134;2024-02-15T10:36:05;1.63;;;1.08;;
23628;SDS011;11991;57.150;-2.134;2024-02-15T10:38:38;1.30;;;1.00;;
23628;SDS011;11991;57.150;-2.134;2024-02-15T10:41:06;1.95;;;1.25;;
23628;SDS011;11991;57.150;-2.134;2024-02-15T10:43:35;0.80;;;0.80;;
23628;SDS011;11991;57.150;-2.134;2024-02-15T10:46:06;1.65;;;1.08;;
23628;SDS011;11991;57.150;-2.134;2024-02-15T10:48:37;1.90;;;1.38;;
23628;SDS011;11991;57.150;-2.134;2024-02-15T10:51:09;1.75;;;1.20;;
23628;SDS011;11991;57.150;-2.134;2024-02-15T10:53:39;2.22;;;1.42;;
23628;SDS011;11991;57.150;-2.134;2024-02-15T10:56:17;1.15;;;0.98;;
23628;SDS011;11991;57.150;-2.134;2024-02-15T10:58:47;1.70;;;1.15;;
23628;SDS011;11991;57.150;-2.134;2024-02-15T11:01:17;1.88;;;1.25;;
23628;SDS011;11991;57.150;-2.134;2024-02-15T11:03:50;1.42;;;1.15;;
23628;SDS011;11991;57.150;-2.134;2024-02-15T11:06:26;1.95;;;1.55;;
23628;SDS011;11991;57.150;-2.134;2024-02-15T11:08:56;1.27;;;1.13;;
23628;SDS011;11991;57.150;-2.134;2024-02-15T11:11:26;3.45;;;2.10;;
23628;SDS011;11991;57.150;-2.134;2024-02-15T11:16:50;2.83;;;2.25;;
23628;SDS011;11991;57.150;-2.134;2024-02-15T11:22:18;3.78;;;2.70;;
23628;SDS011;11991;57.150;-2.134;2024-02-15T11:24:46;4.15;;;2.50;;
23628;SDS011;11991;57.150;-2.134;2024-02-15T11:27:25;3.42;;;2.22;;
23628;SDS011;11991;57.150;-2.134;2024-02-15T11:29:59;2.33;;;1.85;;
23628;SDS011;11991;57.150;-2.134;2024-02-15T11:35:15;1.77;;;1.63;;
23628;SDS011;11991;57.150;-2.134;2024-02-15T11:40:20;2.92;;;1.85;;
23628;SDS011;11991;57.150;-2.134;2024-02-15T11:43:08;2.58;;;1.85;;
23628;SDS011;11991;57.150;-2.134;2024-02-15T11:45:36;2.13;;;1.52;;
23628;SDS011;11991;57.150;-2.134;2024-02-15T11:48:08;2.03;;;1.30;;
23628;SDS011;11991;57.150;-2.134;2024-02-15T11:50:39;2.38;;;1.58;;
23628;SDS011;11991;57.150;-2.134;2024-02-15T11:53:07;2.15;;;1.27;;
23628;SDS011;11991;57.150;-2.134;2024-02-15T11:55:39;4.10;;;2.05;;
23628;SDS011;11991;57.150;-2.134;2024-02-15T11:58:08;3.17;;;1.70;;
23628;SDS011;11991;57.150;-2.134;2024-02-15T12:00:37;4.05;;;2.40;;
23628;SDS011;11991;57.150;-2.134;2024-02-15T12:03:24;2.63;;;1.40;;
23628;SDS011;11991;57.150;-2.134;2024-02-15T12:06:29;2.80;;;1.83;;
23628;SDS011;11991;57.150;-2.134;2024-02-15T12:09:19;2.30;;;1.55;;
23628;SDS011;11991;57.150;-2.134;2024-02-15T12:12:06;2.50;;;1.40;;
23628;SDS011;11991;57.150;-2.134;2024-02-15T12:15:01;2.20;;;1.73;;
23628;SDS011;11991;57.150;-2.134;2024-02-15T12:17:48;2.20;;;1.27;;
23628;SDS011;11991;57.150;-2.134;2024-02-15T12:20:34;2.30;;;1.65;;
23628;SDS011;11991;57.150;-2.134;2024-02-15T12:23:02;2.15;;;1.70;;
23628;SDS011;11991;57.150;-2.134;2024-02-15T12:25:34;2.20;;;1.70;;
23628;SDS011;11991;57.150;-2.134;2024-02-15T12:28:02;2.20;;;1.45;;
23628;SDS011;11991;57.150;-2.134;2024-02-15T12:30:34;2.28;;;1.67;;
23628;SDS011;11991;57.150;-2.134;2024-02-15T12:33:13;2.35;;;1.65;;
23628;SDS011;11991;57.150;-2.134;2024-02-15T12:35:47;2.00;;;1.48;;
23628;SDS011;11991;57.150;-2.134;2024-02-15T12:38:17;4.43;;;2.58;;
23628;SDS011;11991;57.150;-2.134;2024-02-15T12:40:45;7.70;;;3.65;;
23628;SDS011;11991;57.150;-2.134;2024-02-15T12:43:14;2.33;;;1.58;;
23628;SDS011;11991;57.150;-2.134;2024-02-15T12:45:42;1.48;;;1.38;;
23628;SDS011;11991;57.150;-2.134;2024-02-15T12:48:10;2.25;;;1.80;;
23628;SDS011;11991;57.150;-2.134;2024-02-15T12:50:38;1.88;;;1.50;;
23628;SDS011;11991;57.150;-2.134;2024-02-15T12:53:06;1.35;;;1.25;;
23628;SDS011;11991;57.150;-2.134;2024-02-15T12:55:35;1.63;;;1.23;;
23628;SDS011;11991;57.150;-2.134;2024-02-15T12:58:04;1.50;;;1.30;;
23628;SDS011;11991;57.150;-2.134;2024-02-15T13:00:42;1.70;;;1.58;;
23628;SDS011;11991;57.150;-2.134;2024-02-15T13:03:11;1.45;;;1.00;;
23628;SDS011;11991;57.150;-2.134;2024-02-15T13:05:42;5.35;;;3.38;;
23628;SDS011;11991;57.150;-2.134;2024-02-15T13:08:10;7.57;;;5.47;;
23628;SDS011;11991;57.150;-2.134;2024-02-15T13:10:41;2.35;;;1.95;;
23628;SDS011;11991;57.150;-2.134;2024-02-15T13:13:09;2.10;;;1.60;;
23628;SDS011;11991;57.150;-2.134;2024-02-15T13:15:37;1.52;;;1.42;;
23628;SDS011;11991;57.150;-2.134;2024-02-15T13:18:05;2.00;;;1.30;;
23628;SDS011;11991;57.150;-2.134;2024-02-15T13:20:37;1.65;;;1.25;;
23628;SDS011;11991;57.150;-2.134;2024-02-15T13:23:05;1.38;;;1.08;;
23628;SDS011;11991;57.150;-2.134;2024-02-15T13:25:49;1.45;;;1.27;;
23628;SDS011;11991;57.150;-2.134;2024-02-15T13:28:18;2.35;;;1.42;;
23628;SDS011;11991;57.150;-2.134;2024-02-15T13:30:46;1.92;;;1.73;;
23628;SDS011;11991;57.150;-2.134;2024-02-15T13:33:16;1.63;;;1.30;;
23628;SDS011;11991;57.150;-2.134;2024-02-15T13:35:44;7.65;;;6.85;;
23628;SDS011;11991;57.150;-2.134;2024-02-15T13:38:11;6.25;;;5.65;;
23628;SDS011;11991;57.150;-2.134;2024-02-15T13:40:50;2.65;;;2.45;;
23628;SDS011;11991;57.150;-2.134;2024-02-15T13:43:22;2.60;;;2.10;;
23628;SDS011;11991;57.150;-2.134;2024-02-15T13:45:50;2.20;;;1.40;;
23628;SDS011;11991;57.150;-2.134;2024-02-15T13:48:18;1.52;;;1.42;;
23628;SDS011;11991;57.150;-2.134;2024-02-15T13:50:45;1.70;;;1.30;;
23628;SDS011;11991;57.150;-2.134;2024-02-15T13:53:12;1.50;;;1.40;;
23628;SDS011;11991;57.150;-2.134;2024-02-15T13:55:43;1.73;;;1.30;;
23628;SDS011;11991;57.150;-2.134;2024-02-15T13:58:11;1.33;;;1.23;;
23628;SDS011;11991;57.150;-2.134;2024-02-15T14:00:40;1.90;;;1.65;;
23628;SDS011;11991;57.150;-2.134;2024-02-15T14:03:11;2.35;;;2.15;;
23628;SDS011;11991;57.150;-2.134;2024-02-15T14:05:39;2.22;;;1.88;;
23628;SDS011;11991;57.150;-2.134;2024-02-15T14:08:09;1.77;;;1.67;;
23628;SDS011;11991;57.150;-2.134;2024-02-15T14:10:38;1.95;;;1.75;;
23628;SDS011;11991;57.150;-2.134;2024-02-15T14:13:05;1.58;;;1.48;;
23628;SDS011;11991;57.150;-2.134;2024-02-15T14:15:34;1.60;;;1.40;;
23628;SDS011;11991;57.150;-2.134;2024-02-15T14:18:09;1.55;;;1.45;;
23628;SDS011;11991;57.150;-2.134;2024-02-15T14:20:38;1.17;;;1.08;;
23628;SDS011;11991;57.150;-2.134;2024-02-15T14:23:14;1.80;;;1.23;;
23628;SDS011;11991;57.150;-2.134;2024-02-15T14:25:42;1.80;;;1.60;;
23628;SDS011;11991;57.150;-2.134;2024-02-15T14:28:11;2.08;;;1.88;;
23628;SDS011;11991;57.150;-2.134;2024-02-15T14:30:39;2.60;;;2.38;;
23628;SDS011;11991;57.150;-2.134;2024-02-15T14:33:25;2.58;;;2.17;;
23628;SDS011;11991;57.150;-2.134;2024-02-15T14:36:00;1.85;;;1.60;;
23628;SDS011;11991;57.150;-2.134;2024-02-15T14:38:28;1.55;;;1.40;;
23628;SDS011;11991;57.150;-2.134;2024-02-15T14:40:56;1.30;;;1.20;;
23628;SDS011;11991;57.150;-2.134;2024-02-15T14:43:26;1.35;;;1.13;;
23628;SDS011;11991;57.150;-2.134;2024-02-15T14:45:54;1.67;;;1.20;;
23628;SDS011;11991;57.150;-2.134;2024-02-15T14:48:24;1.20;;;1.10;;
23628;SDS011;11991;57.150;-2.134;2024-02-15T14:50:52;1.27;;;1.17;;
23628;SDS011;11991;57.150;-2.134;2024-02-15T14:53:21;1.30;;;1.20;;
23628;SDS011;11991;57.150;-2.134;2024-02-15T14:55:49;1.70;;;1.60;;
23628;SDS011;11991;57.150;-2.134;2024-02-15T14:58:19;1.65;;;1.52;;
23628;SDS011;11991;57.150;-2.134;2024-02-15T15:00:48;1.10;;;1.00;;
23628;SDS011;11991;57.150;-2.134;2024-02-15T15:03:16;1.30;;;1.02;;
23628;SDS011;11991;57.150;-2.134;2024-02-15T15:05:44;0.70;;;0.70;;